Time;durP1;ratioP1;P1;durP2;ratioP2;P2;SDS_P1;SDS_P2;PMS_P1;PMS_P2;Temp;Humidity;BMP_temperature;BMP_pressure;BME280_temperature;BME280_humidity;BME280_pressure;Samples;Min_cycle;Max_cycle;Signal;HPM_P1;HPM_P2
2023/02/24 00:01:38;;;;;;;29.48;18.58;;;;;;;;;;4978879;28;20137;-56
2023/02/24 00:04:08;;;;;;;29.23;17.42;;;;;;;;;;4981555;28;20032;-48
2023/02/24 00:06:35;;;;;;;27.52;17.48;;;;;;;;;;4983950;28;20026;-54
2023/02/24 00:09:00;;;;;;;;;;;;;;;;;;4978297;28;20095;-56
2023/02/24 00:11:26;;;;;;;23.47;16.27;;;;;;;;;;4984285;28;20016;-59
2023/02/24 00:13:52;;;;;;;24.50;16.00;;;;;;;;;;4977390;28;20280;-58
2023/02/24 00:16:17;;;;;;;26.63;17.95;;;;;;;;;;4979467;28;20041;-54
2023/02/24 00:18:43;;;;;;;24.92;16.90;;;;;;;;;;4983400;28;20376;-54
2023/02/24 00:21:12;;;;;;;29.25;18.38;;;;;;;;;;4979254;28;20626;-54
2023/02/24 00:23:39;;;;;;;33.25;19.17;;;;;;;;;;4982675;28;20592;-54
2023/02/24 00:26:05;;;;;;;33.83;18.95;;;;;;;;;;4977566;28;20042;-51
2023/02/24 00:28:31;;;;;;;28.38;18.23;;;;;;;;;;4976877;28;20101;-51
2023/02/24 00:31:01;;;;;;;27.65;18.27;;;;;;;;;;4980863;28;20514;-52
2023/02/24 00:33:27;;;;;;;25.65;17.08;;;;;;;;;;4981724;28;20045;-50
2023/02/24 00:35:54;;;;;;;29.27;18.75;;;;;;;;;;4975380;28;20065;-51
2023/02/24 00:38:24;;;;;;;26.85;17.02;;;;;;;;;;4982873;28;20066;-49
2023/02/24 00:40:49;;;;;;;31.75;19.30;;;;;;;;;;4960440;28;20032;-54
2023/02/24 00:43:14;;;;;;;25.80;17.70;;;;;;;;;;4980640;28;20038;-51
2023/02/24 00:45:39;;;;;;;28.40;19.83;;;;;;;;;;4976610;28;20122;-53
2023/02/24 00:48:05;;;;;;;30.70;19.85;;;;;;;;;;4972007;28;20499;-51
2023/02/24 00:50:31;;;;;;;30.85;19.73;;;;;;;;;;4982870;28;20125;-51
2023/02/24 00:52:56;;;;;;;28.58;19.30;;;;;;;;;;4976342;28;20431;-59
2023/02/24 00:55:22;;;;;;;30.00;19.17;;;;;;;;;;4986170;28;20141;-55
2023/02/24 00:57:49;;;;;;;30.08;19.10;;;;;;;;;;4977577;28;20026;-52
2023/02/24 01:00:16;;;;;;;30.40;19.17;;;;;;;;;;4977989;28;20128;-58
2023/02/24 01:02:43;;;;;;;31.55;20.52;;;;;;;;;;4966421;28;20042;-57
2023/02/24 01:05:10;;;;;;;33.97;21.58;;;;;;;;;;4978784;28;20042;-58
2023/02/24 01:07:36;;;;;;;31.67;20.48;;;;;;;;;;4981890;28;20448;-54
2023/02/24 01:10:07;;;;;;;29.13;19.20;;;;;;;;;;4977035;28;20383;-52
2023/02/24 01:12:48;;;;;;;28.63;18.17;;;;;;;;;;4977041;28;20042;-55
2023/02/24 01:15:15;;;;;;;31.80;20.70;;;;;;;;;;4981289;28;20200;-51
2023/02/24 01:17:40;;;;;;;30.58;19.70;;;;;;;;;;4979844;28;20026;-54
2023/02/24 01:20:15;;;;;;;36.42;21.15;;;;;;;;;;4982352;28;20045;-59
2023/02/24 01:22:48;;;;;;;31.55;19.52;;;;;;;;;;4952613;28;20399;-55
2023/02/24 01:25:14;;;;;;;31.13;19.13;;;;;;;;;;4977314;28;20038;-55
2023/02/24 01:27:40;;;;;;;30.13;21.15;;;;;;;;;;4985023;28;20080;-55
2023/02/24 01:30:08;;;;;;;34.20;20.17;;;;;;;;;;4977775;28;20454;-55
2023/02/24 01:32:33;;;;;;;;;;;;;;;;;;4976907;28;20072;-57
2023/02/24 01:35:01;;;;;;;36.23;21.90;;;;;;;;;;4983942;28;19956;-54
2023/02/24 01:37:27;;;;;;;37.60;22.35;;;;;;;;;;4988571;28;20034;-56
2023/02/24 01:39:53;;;;;;;34.58;23.58;;;;;;;;;;4982091;28;20509;-59
2023/02/24 01:42:20;;;;;;;35.92;22.05;;;;;;;;;;4973723;28;20507;-56
2023/02/24 01:44:45;;;;;;;31.95;22.30;;;;;;;;;;4980421;28;20838;-57
2023/02/24 01:47:11;;;;;;;32.28;21.48;;;;;;;;;;4980866;28;20042;-53
2023/02/24 01:49:46;;;;;;;33.35;21.92;;;;;;;;;;4976285;28;20416;-56
2023/02/24 01:52:18;;;;;;;44.15;23.40;;;;;;;;;;4985166;28;20104;-58
2023/02/24 01:54:47;;;;;;;33.88;22.70;;;;;;;;;;4975639;28;20109;-55
2023/02/24 01:57:15;;;;;;;33.42;22.70;;;;;;;;;;4978783;28;20468;-56
2023/02/24 01:59:41;;;;;;;37.85;22.13;;;;;;;;;;4980385;28;20212;-56
2023/02/24 02:02:07;;;;;;;36.13;22.93;;;;;;;;;;4976689;28;20034;-54
2023/02/24 02:04:45;;;;;;;30.30;21.42;;;;;;;;;;4991288;28;20387;-56
2023/02/24 02:07:14;;;;;;;28.35;19.80;;;;;;;;;;4981974;28;20039;-58
2023/02/24 02:09:40;;;;;;;35.53;23.27;;;;;;;;;;4991923;28;20027;-51
2023/02/24 02:12:06;;;;;;;31.45;21.33;;;;;;;;;;4981826;28;20058;-50
2023/02/24 02:14:33;;;;;;;;;;;;;;;;;;4976110;28;20026;-49
2023/02/24 02:17:25;;;;;;;28.45;19.17;;;;;;;;;;4972499;28;19921;-56
2023/02/24 02:20:14;;;;;;;35.70;20.98;;;;;;;;;;4982068;28;20038;-51
2023/02/24 02:22:45;;;;;;;37.72;24.50;;;;;;;;;;4975100;28;20027;-54
2023/02/24 02:25:36;;;;;;;41.42;26.17;;;;;;;;;;4975052;28;20394;-51
2023/02/24 02:28:05;;;;;;;42.28;26.63;;;;;;;;;;4982052;28;20038;-49
2023/02/24 02:30:47;;;;;;;41.33;26.02;;;;;;;;;;4976940;28;20093;-57
2023/02/24 02:33:12;;;;;;;41.35;25.13;;;;;;;;;;4979831;28;20054;-55
2023/02/24 02:35:45;;;;;;;42.00;25.05;;;;;;;;;;4985814;28;20038;-53
2023/02/24 02:38:26;;;;;;;34.38;23.75;;;;;;;;;;4977760;28;20034;-55
2023/02/24 02:41:12;;;;;;;37.78;24.83;;;;;;;;;;4981491;28;20034;-61
2023/02/24 02:43:45;;;;;;;35.35;24.40;;;;;;;;;;4984260;28;20038;-57
2023/02/24 02:46:33;;;;;;;37.92;23.05;;;;;;;;;;4992020;28;20538;-55
2023/02/24 02:49:02;;;;;;;31.88;22.25;;;;;;;;;;4980164;28;20061;-54
2023/02/24 02:51:37;;;;;;;34.80;21.90;;;;;;;;;;4985051;28;20431;-54
2023/02/24 02:54:03;;;;;;;33.88;21.83;;;;;;;;;;4978956;28;20038;-56
2023/02/24 02:56:31;;;;;;;35.15;21.27;;;;;;;;;;4985381;28;20046;-52
2023/02/24 02:58:58;;;;;;;33.40;23.33;;;;;;;;;;4991250;28;20059;-54
2023/02/24 03:01:32;;;;;;;40.07;25.20;;;;;;;;;;4978924;28;20474;-56
2023/02/24 03:04:03;;;;;;;35.50;24.55;;;;;;;;;;4983813;28;20291;-56
2023/02/24 03:06:31;;;;;;;36.08;23.27;;;;;;;;;;4978135;28;20030;-55
2023/02/24 03:08:58;;;;;;;35.15;22.00;;;;;;;;;;4985408;28;20077;-53
2023/02/24 03:11:24;;;;;;;32.25;21.15;;;;;;;;;;4980748;28;20045;-52
2023/02/24 03:13:52;;;;;;;32.83;20.92;;;;;;;;;;4979404;28;20026;-56
2023/02/24 03:16:19;;;;;;;30.90;19.95;;;;;;;;;;4985259;28;20043;-56
2023/02/24 03:18:49;;;;;;;32.15;21.33;;;;;;;;;;4979719;28;20104;-58
2023/02/24 03:21:21;;;;;;;31.52;21.02;;;;;;;;;;4978451;28;20105;-51
2023/02/24 03:23:50;;;;;;;37.00;22.08;;;;;;;;;;4985581;28;20030;-55
2023/02/24 03:26:22;;;;;;;31.38;20.33;;;;;;;;;;4981457;28;20046;-54
2023/02/24 03:28:52;;;;;;;31.33;20.35;;;;;;;;;;4968027;28;20065;-56
2023/02/24 03:31:22;;;;;;;32.42;21.55;;;;;;;;;;4980344;28;20113;-53
2023/02/24 03:33:59;;;;;;;28.80;19.27;;;;;;;;;;4978280;28;20399;-51
2023/02/24 03:36:26;;;;;;;31.98;20.65;;;;;;;;;;4985943;28;20038;-55
2023/02/24 03:38:52;;;;;;;31.67;20.48;;;;;;;;;;4979489;28;20133;-53
2023/02/24 03:41:17;;;;;;;37.67;23.23;;;;;;;;;;4990156;28;20165;-60
2023/02/24 03:43:44;;;;;;;34.60;21.98;;;;;;;;;;4975202;28;20033;-57
2023/02/24 03:46:10;;;;;;;41.40;24.85;;;;;;;;;;4976653;28;20038;-51
2023/02/24 03:48:39;;;;;;;37.22;23.05;;;;;;;;;;4983703;28;20042;-52
2023/02/24 03:51:04;;;;;;;38.25;24.80;;;;;;;;;;4969209;28;20286;-54
2023/02/24 03:53:43;;;;;;;41.80;26.23;;;;;;;;;;4978009;28;20062;-55
2023/02/24 03:56:27;;;;;;;39.03;25.52;;;;;;;;;;4999934;28;20038;-55
2023/02/24 03:59:05;;;;;;;35.72;23.55;;;;;;;;;;4994576;28;20030;-61
2023/02/24 04:01:40;;;;;;;41.03;24.77;;;;;;;;;;4980968;28;20022;-52
2023/02/24 04:04:38;;;;;;;46.78;25.60;;;;;;;;;;4997703;28;20047;-56
2023/02/24 04:07:36;;;;;;;50.25;27.65;;;;;;;;;;4929827;28;20495;-58
2023/02/24 04:10:08;;;;;;;54.83;30.58;;;;;;;;;;4977783;28;20030;-59
2023/02/24 04:12:38;;;;;;;52.53;29.40;;;;;;;;;;4983017;28;20061;-54
2023/02/24 04:15:15;;;;;;;64.07;35.40;;;;;;;;;;4970095;28;20142;-53
2023/02/24 04:17:47;;;;;;;53.97;31.48;;;;;;;;;;4978876;28;20034;-57
2023/02/24 04:20:15;;;;;;;56.45;30.63;;;;;;;;;;4981209;28;20030;-53
2023/02/24 04:22:48;;;;;;;54.15;30.88;;;;;;;;;;4976584;28;20037;-52
2023/02/24 04:25:18;;;;;;;53.20;30.80;;;;;;;;;;4984816;28;20034;-53
2023/02/24 04:27:45;;;;;;;49.95;27.23;;;;;;;;;;4977871;28;20160;-58
2023/02/24 04:30:14;;;;;;;42.20;26.33;;;;;;;;;;4978818;28;20026;-53
2023/02/24 04:32:41;;;;;;;53.55;25.90;;;;;;;;;;4983488;28;20042;-56
2023/02/24 04:35:11;;;;;;;38.47;23.08;;;;;;;;;;4976934;28;20301;-52
2023/02/24 04:37:44;;;;;;;42.88;24.48;;;;;;;;;;4998395;28;20037;-53
2023/02/24 04:40:15;;;;;;;43.67;24.52;;;;;;;;;;4976487;28;20085;-53
2023/02/24 04:42:47;;;;;;;42.67;23.70;;;;;;;;;;4958689;28;20076;-53
2023/02/24 04:45:17;;;;;;;43.65;23.60;;;;;;;;;;4980050;28;20526;-55
2023/02/24 04:48:11;;;;;;;44.90;23.45;;;;;;;;;;4970547;28;20979;-53
2023/02/24 04:50:31;;;;;;;41.97;23.30;;;;;;;;;;4978267;28;20048;-53
2023/02/24 04:53:17;;;;;;;41.25;23.40;;;;;;;;;;4984357;28;20029;-56
2023/02/24 04:55:47;;;;;;;46.75;25.50;;;;;;;;;;4978355;28;20190;-54
2023/02/24 04:58:18;;;;;;;48.28;28.25;;;;;;;;;;4979629;28;20031;-58
2023/02/24 05:00:47;;;;;;;41.22;25.45;;;;;;;;;;4982449;28;20034;-55
2023/02/24 05:03:13;;;;;;;54.22;26.65;;;;;;;;;;4977514;28;20030;-56
2023/02/24 05:05:41;;;;;;;42.80;25.80;;;;;;;;;;4979848;28;20049;-52
2023/02/24 05:08:08;;;;;;;50.33;25.42;;;;;;;;;;4977823;28;20582;-50
2023/02/24 05:10:38;;;;;;;56.00;29.13;;;;;;;;;;4978529;28;20556;-53
2023/02/24 05:13:05;;;;;;;50.30;28.40;;;;;;;;;;4996922;28;20034;-59
2023/02/24 05:15:31;;;;;;;55.03;29.05;;;;;;;;;;4977344;28;20038;-48
2023/02/24 05:18:00;;;;;;;51.25;28.40;;;;;;;;;;4984769;28;20353;-53
2023/02/24 05:23:10;;;;;;;53.42;29.42;;;;;;;;;;4975251;28;20487;-50
2023/02/24 05:25:36;;;;;;;54.35;30.20;;;;;;;;;;4982236;28;20085;-52
2023/02/24 05:28:05;;;;;;;53.43;29.93;;;;;;;;;;4977547;28;20030;-54
2023/02/24 05:30:31;;;;;;;52.58;28.83;;;;;;;;;;4977097;28;20407;-57
2023/02/24 05:32:57;;;;;;;49.28;28.92;;;;;;;;;;4982425;28;20145;-53
2023/02/24 05:35:23;;;;;;;55.08;30.13;;;;;;;;;;4976020;28;20045;-54
2023/02/24 05:37:48;;;;;;;56.10;29.45;;;;;;;;;;4982862;28;20625;-57
2023/02/24 05:40:14;;;;;;;60.10;29.40;;;;;;;;;;4977203;28;20030;-52
2023/02/24 05:42:40;;;;;;;53.15;28.05;;;;;;;;;;4977526;28;20036;-54
2023/02/24 05:45:10;;;;;;;52.40;27.85;;;;;;;;;;4980840;28;20042;-60
2023/02/24 05:47:35;;;;;;;48.85;26.63;;;;;;;;;;4977278;28;20560;-54
2023/02/24 05:50:02;;;;;;;47.45;27.50;;;;;;;;;;4982590;28;20796;-55
2023/02/24 05:52:27;;;;;;;54.60;26.75;;;;;;;;;;4978218;28;20030;-55
2023/02/24 05:54:53;;;;;;;48.03;25.92;;;;;;;;;;4975539;28;20339;-52
2023/02/24 05:57:20;;;;;;;51.20;27.35;;;;;;;;;;4981171;28;20042;-56
2023/02/24 05:59:47;;;;;;;51.78;28.63;;;;;;;;;;4976706;28;20044;-53
2023/02/24 06:02:12;;;;;;;;;;;;;;;;;;4984445;28;20606;-58
2023/02/24 06:04:39;;;;;;;52.63;27.90;;;;;;;;;;4969062;28;19940;-52
2023/02/24 06:07:06;;;;;;;53.25;26.70;;;;;;;;;;4978611;28;20070;-57
2023/02/24 06:09:31;;;;;;;52.07;27.70;;;;;;;;;;4982210;28;20049;-51
2023/02/24 06:11:56;;;;;;;52.83;27.48;;;;;;;;;;4978396;28;20272;-55
2023/02/24 06:14:23;;;;;;;50.10;27.30;;;;;;;;;;4999676;28;20042;-59
2023/02/24 06:16:49;;;;;;;51.83;27.17;;;;;;;;;;4981063;28;20038;-49
2023/02/24 06:19:15;;;;;;;59.40;28.57;;;;;;;;;;4978563;28;20061;-57
2023/02/24 06:21:41;;;;;;;46.75;28.27;;;;;;;;;;4985226;28;20479;-54
2023/02/24 06:24:09;;;;;;;49.05;26.10;;;;;;;;;;4976916;28;20072;-54
2023/02/24 06:26:35;;;;;;;57.55;28.58;;;;;;;;;;4986008;28;20030;-52
2023/02/24 06:29:01;;;;;;;50.00;26.45;;;;;;;;;;4979374;28;20066;-56
2023/02/24 06:31:26;;;;;;;50.85;27.30;;;;;;;;;;4978228;28;20468;-56
2023/02/24 06:33:52;;;;;;;51.30;27.73;;;;;;;;;;4986274;28;20046;-51
2023/02/24 06:36:18;;;;;;;56.15;27.17;;;;;;;;;;4978851;28;20035;-53
2023/02/24 06:38:43;;;;;;;54.58;27.60;;;;;;;;;;4983839;28;20027;-54
2023/02/24 06:41:12;;;;;;;50.17;26.00;;;;;;;;;;4978393;28;20030;-57
2023/02/24 06:43:38;;;;;;;54.65;26.77;;;;;;;;;;4977173;28;20130;-58
2023/02/24 06:46:05;;;;;;;53.28;27.42;;;;;;;;;;5001437;28;20078;-57
2023/02/24 06:48:32;;;;;;;50.88;27.50;;;;;;;;;;4980249;28;20045;-56
2023/02/24 06:51:02;;;;;;;53.47;26.90;;;;;;;;;;4983932;28;20030;-63
2023/02/24 06:53:27;;;;;;;49.15;27.17;;;;;;;;;;5000576;28;20041;-52
2023/02/24 06:55:53;;;;;;;51.08;27.65;;;;;;;;;;4979109;28;20030;-54
2023/02/24 06:58:19;;;;;;;53.30;27.27;;;;;;;;;;4996481;28;20046;-57
2023/02/24 07:00:55;;;;;;;50.90;27.30;;;;;;;;;;4977906;28;20031;-55
2023/02/24 07:03:23;;;;;;;54.15;27.08;;;;;;;;;;4979434;28;20038;-55
2023/02/24 07:06:14;;;;;;;55.13;27.30;;;;;;;;;;4982148;28;20120;-54
2023/02/24 07:08:40;;;;;;;58.03;26.80;;;;;;;;;;4978275;28;20026;-53
2023/02/24 07:11:06;;;;;;;59.13;27.50;;;;;;;;;;4984775;28;20514;-54
2023/02/24 07:13:33;;;;;;;50.00;26.77;;;;;;;;;;4978515;28;20610;-56
2023/02/24 07:16:02;;;;;;;54.38;26.30;;;;;;;;;;4994278;28;20297;-56
2023/02/24 07:18:29;;;;;;;60.55;27.52;;;;;;;;;;4986115;28;20758;-53
2023/02/24 07:20:55;;;;;;;62.45;27.27;;;;;;;;;;4976102;28;21516;-54
2023/02/24 07:23:20;;;;;;;60.83;26.88;;;;;;;;;;4980858;28;20035;-62
2023/02/24 07:25:45;;;;;;;56.63;26.98;;;;;;;;;;4995416;28;20046;-54
2023/02/24 07:28:11;;;;;;;58.72;27.17;;;;;;;;;;4979006;28;20038;-56
2023/02/24 07:30:38;;;;;;;57.95;27.55;;;;;;;;;;4984854;28;20057;-53
2023/02/24 07:33:03;;;;;;;57.30;27.77;;;;;;;;;;4989172;28;20038;-52
2023/02/24 07:35:29;;;;;;;56.25;25.98;;;;;;;;;;4974720;28;20104;-59
2023/02/24 07:38:00;;;;;;;56.17;28.27;;;;;;;;;;4997991;28;20030;-53
2023/02/24 07:40:26;;;;;;;60.70;27.42;;;;;;;;;;4979086;28;20618;-51
2023/02/24 07:42:52;;;;;;;52.80;26.50;;;;;;;;;;4986351;28;20042;-58
2023/02/24 07:45:18;;;;;;;61.20;26.88;;;;;;;;;;4963525;28;20042;-54
2023/02/24 07:47:44;;;;;;;59.38;27.17;;;;;;;;;;4977664;28;20475;-56
2023/02/24 07:50:13;;;;;;;57.00;28.48;;;;;;;;;;4984922;28;20034;-58
2023/02/24 07:52:39;;;;;;;59.75;27.85;;;;;;;;;;4979921;28;20121;-48
2023/02/24 07:55:04;;;;;;;54.42;27.20;;;;;;;;;;4983871;28;20045;-58
2023/02/24 07:57:32;;;;;;;55.10;27.35;;;;;;;;;;4978522;28;20469;-50
2023/02/24 07:59:58;;;;;;;63.00;29.30;;;;;;;;;;4976777;28;20061;-54
2023/02/24 08:02:24;;;;;;;58.65;29.30;;;;;;;;;;4984567;28;20030;-53
2023/02/24 08:04:50;;;;;;;54.42;26.92;;;;;;;;;;4978225;28;20032;-57
2023/02/24 08:07:16;;;;;;;53.75;27.50;;;;;;;;;;4984358;28;20109;-55
2023/02/24 08:12:16;;;;;;;57.75;27.83;;;;;;;;;;4985714;28;20122;-55
2023/02/24 08:14:49;;;;;;;64.18;29.02;;;;;;;;;;4992552;28;20026;-53
2023/02/24 08:17:18;;;;;;;61.83;29.85;;;;;;;;;;4978551;28;20557;-53
2023/02/24 08:19:45;;;;;;;69.03;31.02;;;;;;;;;;4981464;28;20178;-53
2023/02/24 08:22:22;;;;;;;66.13;31.92;;;;;;;;;;4972849;28;20027;-56
2023/02/24 08:24:54;;;;;;;68.43;32.03;;;;;;;;;;4977822;28;20038;-51
2023/02/24 08:27:23;;;;;;;72.00;32.40;;;;;;;;;;4982587;28;20038;-57
2023/02/24 08:30:00;;;;;;;72.63;32.65;;;;;;;;;;4975606;28;20121;-53
2023/02/24 08:32:32;;;;;;;72.05;32.20;;;;;;;;;;4981162;28;20053;-53
2023/02/24 08:35:02;;;;;;;70.35;31.25;;;;;;;;;;4980847;28;20050;-51
2023/02/24 08:37:33;;;;;;;77.45;32.63;;;;;;;;;;4975701;28;20041;-51
2023/02/24 08:39:58;;;;;;;69.55;30.92;;;;;;;;;;4980336;28;20108;-56
2023/02/24 08:42:33;;;;;;;72.13;32.78;;;;;;;;;;4978103;28;20462;-53
2023/02/24 08:45:00;;;;;;;70.90;31.88;;;;;;;;;;4977095;28;20046;-56
2023/02/24 08:47:29;;;;;;;69.40;29.98;;;;;;;;;;4982423;28;20053;-60
2023/02/24 08:49:58;;;;;;;78.07;31.05;;;;;;;;;;4971013;28;20034;-58
2023/02/24 08:52:26;;;;;;;76.97;31.13;;;;;;;;;;4983531;28;20044;-51
2023/02/24 08:54:53;;;;;;;;;;;;;;;;;;4978661;28;20530;-52
2023/02/24 08:57:19;;;;;;;71.15;30.35;;;;;;;;;;4979573;28;19936;-54
2023/02/24 08:59:48;;;;;;;74.28;31.25;;;;;;;;;;4981928;28;20052;-60
2023/02/24 09:02:22;;;;;;;85.75;32.67;;;;;;;;;;4975315;28;20092;-52
2023/02/24 09:04:50;;;;;;;79.15;33.35;;;;;;;;;;4975349;28;20033;-55
2023/02/24 09:07:20;;;;;;;94.57;33.53;;;;;;;;;;4983060;28;20038;-56
2023/02/24 09:09:46;;;;;;;81.18;31.33;;;;;;;;;;4970306;28;20026;-58
2023/02/24 09:12:23;;;;;;;84.18;33.05;;;;;;;;;;4981139;28;20921;-57
2023/02/24 09:14:56;;;;;;;91.00;33.28;;;;;;;;;;4974795;28;20125;-53
2023/02/24 09:17:48;;;;;;;88.57;35.17;;;;;;;;;;4977290;28;20173;-52
2023/02/24 09:23:02;;;;;;;84.55;31.50;;;;;;;;;;4973548;28;20064;-56
2023/02/24 09:25:40;;;;;;;92.97;32.58;;;;;;;;;;4979426;28;20032;-50
2023/02/24 09:28:15;;;;;;;88.25;31.35;;;;;;;;;;4982540;28;20041;-54
2023/02/24 09:30:54;;;;;;;88.88;31.98;;;;;;;;;;4973703;28;20022;-51
2023/02/24 09:33:42;;;;;;;85.03;30.50;;;;;;;;;;4977358;28;20329;-56
2023/02/24 09:36:26;;;;;;;89.13;31.10;;;;;;;;;;4981549;28;20034;-54
2023/02/24 09:41:44;;;;;;;88.35;31.63;;;;;;;;;;4976131;28;20029;-56
2023/02/24 09:44:17;;;;;;;88.82;34.00;;;;;;;;;;4982541;28;20034;-53
2023/02/24 09:46:52;;;;;;;95.28;32.22;;;;;;;;;;4976277;28;20041;-52
2023/02/24 09:49:19;;;;;;;100.55;30.88;;;;;;;;;;4982124;28;20038;-57
2023/02/24 09:51:44;;;;;;;84.18;30.77;;;;;;;;;;4975357;28;20422;-52
2023/02/24 09:54:15;;;;;;;77.90;29.58;;;;;;;;;;4986659;28;20483;-58
2023/02/24 09:56:43;;;;;;;67.40;27.50;;;;;;;;;;4987469;28;20455;-50
2023/02/24 09:59:12;;;;;;;66.57;26.75;;;;;;;;;;4985572;28;20214;-49
2023/02/24 10:01:46;;;;;;;68.65;26.83;;;;;;;;;;4984883;28;20030;-51
2023/02/24 10:04:12;;;;;;;64.65;27.23;;;;;;;;;;4984946;28;20487;-55
2023/02/24 10:06:44;;;;;;;63.38;24.60;;;;;;;;;;4985115;28;20057;-56
2023/02/24 10:09:13;;;;;;;58.58;23.55;;;;;;;;;;4985094;28;20038;-49
2023/02/24 10:11:52;;;;;;;63.13;24.65;;;;;;;;;;4984286;28;20034;-58
2023/02/24 10:14:19;;;;;;;59.47;22.98;;;;;;;;;;4990262;28;20096;-55
2023/02/24 10:17:06;;;;;;;60.25;23.65;;;;;;;;;;4983603;28;20042;-56
2023/02/24 10:19:33;;;;;;;60.95;23.40;;;;;;;;;;4986519;28;20037;-56
2023/02/24 10:22:04;;;;;;;61.85;25.30;;;;;;;;;;4986194;28;20054;-53
2023/02/24 10:24:37;;;;;;;57.92;24.25;;;;;;;;;;4985173;28;20042;-54
2023/02/24 10:27:22;;;;;;;67.07;24.52;;;;;;;;;;4994283;28;20038;-54
2023/02/24 10:29:49;;;;;;;55.85;24.08;;;;;;;;;;4985662;28;20134;-55
2023/02/24 10:32:41;;;;;;;56.90;23.27;;;;;;;;;;4986115;28;20041;-53
2023/02/24 10:35:13;;;;;;;59.10;21.65;;;;;;;;;;4986602;28;20243;-57
2023/02/24 10:37:38;;;;;;;54.97;22.30;;;;;;;;;;4988253;28;20053;-51
2023/02/24 10:40:08;;;;;;;56.60;22.02;;;;;;;;;;4982715;28;20038;-53
2023/02/24 10:42:36;;;;;;;58.20;22.58;;;;;;;;;;4986039;28;20561;-54
2023/02/24 10:45:25;;;;;;;55.72;20.80;;;;;;;;;;4984813;28;20045;-52
2023/02/24 10:47:55;;;;;;;60.65;21.80;;;;;;;;;;4979619;28;20054;-55
2023/02/24 10:50:42;;;;;;;55.85;20.75;;;;;;;;;;4985428;28;20045;-55
2023/02/24 10:55:52;;;;;;;60.25;22.25;;;;;;;;;;4988308;28;20046;-52
2023/02/24 11:24:52;;;;;;;62.78;24.45;;;;;;;;;;4987412;28;20080;-53
2023/02/24 11:27:19;;;;;;;62.05;22.45;;;;;;;;;;4987969;28;20030;-55
2023/02/24 11:30:00;;;;;;;64.60;22.90;;;;;;;;;;4987178;28;20035;-51
2023/02/24 11:32:41;;;;;;;62.67;24.52;;;;;;;;;;4983664;28;20039;-54
2023/02/24 11:35:11;;;;;;;54.88;22.65;;;;;;;;;;4987289;28;20081;-51
2023/02/24 11:37:38;;;;;;;57.90;22.75;;;;;;;;;;4982875;28;20038;-52
2023/02/24 11:40:10;;;;;;;61.60;23.30;;;;;;;;;;4988386;28;20037;-55
2023/02/24 11:42:37;;;;;;;68.65;24.90;;;;;;;;;;4984462;28;20034;-57
2023/02/24 11:45:11;;;;;;;62.80;24.05;;;;;;;;;;4985302;28;20038;-55
2023/02/24 11:47:44;;;;;;;66.80;24.63;;;;;;;;;;4989636;28;20056;-51
2023/02/24 11:50:12;;;;;;;65.13;22.45;;;;;;;;;;4986256;28;20045;-50
2023/02/24 11:52:39;;;;;;;63.58;24.15;;;;;;;;;;4987335;28;20030;-55
2023/02/24 11:55:12;;;;;;;63.08;23.75;;;;;;;;;;4983193;28;20053;-55
2023/02/24 11:57:40;;;;;;;62.35;24.00;;;;;;;;;;4988657;28;20042;-58
2023/02/24 12:00:05;;;;;;;;;;;;;;;;;;4985789;28;20038;-53
2023/02/24 12:02:58;;;;;;;57.05;21.92;;;;;;;;;;4986419;28;19914;-52
2023/02/24 12:05:25;;;;;;;55.58;22.08;;;;;;;;;;4985223;28;20535;-50
2023/02/24 12:07:57;;;;;;;57.38;22.48;;;;;;;;;;4984576;28;20038;-54
2023/02/24 12:10:31;;;;;;;59.55;23.27;;;;;;;;;;4984913;28;20087;-51
2023/02/24 12:13:01;;;;;;;53.13;21.52;;;;;;;;;;4985463;28;20561;-53
2023/02/24 12:15:29;;;;;;;56.22;21.63;;;;;;;;;;4976543;28;20043;-55
2023/02/24 12:18:04;;;;;;;63.47;22.65;;;;;;;;;;4984906;28;20113;-52
2023/02/24 12:20:33;;;;;;;59.80;23.00;;;;;;;;;;4984673;28;20545;-54
2023/02/24 12:23:09;;;;;;;51.20;21.35;;;;;;;;;;4984401;28;20069;-55
2023/02/24 12:25:46;;;;;;;54.65;21.23;;;;;;;;;;4984064;28;20038;-54
2023/02/24 12:28:12;;;;;;;;;;;;;;;;;;4983011;28;20038;-54
2023/02/24 12:30:56;;;;;;;50.13;21.17;;;;;;;;;;4985417;28;19914;-51
2023/02/24 12:33:27;;;;;;;56.42;21.90;;;;;;;;;;4983721;28;20042;-51
2023/02/24 12:36:05;;;;;;;57.17;23.55;;;;;;;;;;4976014;28;20053;-53
2023/02/24 12:38:33;;;;;;;59.08;21.15;;;;;;;;;;4984913;28;20030;-54
2023/02/24 12:41:02;;;;;;;44.50;19.45;;;;;;;;;;4982763;28;20500;-51
2023/02/24 12:43:44;;;;;;;50.95;20.23;;;;;;;;;;4983559;28;20116;-55
2023/02/24 12:46:27;;;;;;;51.45;20.85;;;;;;;;;;4983568;28;20050;-58
2023/02/24 12:48:52;;;;;;;52.42;20.73;;;;;;;;;;4981203;28;20030;-56
2023/02/24 12:51:27;;;;;;;45.35;18.23;;;;;;;;;;4984174;28;20030;-52
2023/02/24 12:53:52;;;;;;;56.13;21.27;;;;;;;;;;4985229;28;20399;-55
2023/02/24 12:56:23;;;;;;;46.70;20.27;;;;;;;;;;4983932;28;20498;-58
2023/02/24 12:58:50;;;;;;;50.17;20.42;;;;;;;;;;4984799;28;20049;-51
2023/02/24 13:01:15;;;;;;;;;;;;;;;;;;4984982;28;20365;-51
2023/02/24 13:03:44;;;;;;;51.97;19.25;;;;;;;;;;4987339;28;19921;-50
2023/02/24 13:06:27;;;;;;;52.92;18.83;;;;;;;;;;4983960;28;20038;-52
2023/02/24 13:08:53;;;;;;;49.17;19.25;;;;;;;;;;4986089;28;20030;-57
2023/02/24 13:11:33;;;;;;;49.45;20.25;;;;;;;;;;4986050;28;20018;-54
2023/02/24 13:14:03;;;;;;;44.83;19.63;;;;;;;;;;4986466;28;20121;-54
2023/02/24 13:16:29;;;;;;;52.17;19.92;;;;;;;;;;4984816;28;20116;-51
2023/02/24 13:19:03;;;;;;;53.28;19.30;;;;;;;;;;4986946;28;20509;-55
2023/02/24 13:21:28;;;;;;;50.33;20.52;;;;;;;;;;4983988;28;20030;-57
2023/02/24 13:23:58;;;;;;;49.58;19.50;;;;;;;;;;4985518;28;20096;-54
2023/02/24 13:26:24;;;;;;;57.30;19.17;;;;;;;;;;4983726;28;20042;-48
2023/02/24 13:28:58;;;;;;;54.58;19.85;;;;;;;;;;4982130;28;20069;-52
2023/02/24 13:31:25;;;;;;;50.38;18.00;;;;;;;;;;4993720;28;20391;-51
2023/02/24 13:33:51;;;;;;;42.67;17.67;;;;;;;;;;4986664;28;20034;-52
2023/02/24 13:36:21;;;;;;;51.75;19.52;;;;;;;;;;4985778;28;20084;-53
2023/02/24 13:38:48;;;;;;;46.60;18.15;;;;;;;;;;4982101;28;20042;-54
2023/02/24 13:41:34;;;;;;;47.60;19.40;;;;;;;;;;4983557;28;20042;-50
2023/02/24 13:44:01;;;;;;;50.97;19.35;;;;;;;;;;4981963;28;20030;-50
2023/02/24 13:46:34;;;;;;;45.70;18.92;;;;;;;;;;4985953;28;20038;-59
2023/02/24 13:49:20;;;;;;;48.15;20.60;;;;;;;;;;4983693;28;20046;-54
2023/02/24 13:51:51;;;;;;;50.22;19.70;;;;;;;;;;4999286;28;20038;-56
2023/02/24 13:54:16;;;;;;;42.05;18.50;;;;;;;;;;4983649;28;20042;-53
2023/02/24 13:56:55;;;;;;;50.83;19.85;;;;;;;;;;4984477;28;20481;-51
2023/02/24 13:59:23;;;;;;;44.13;18.88;;;;;;;;;;4984189;28;20833;-53
2023/02/24 14:01:48;;;;;;;43.35;18.02;;;;;;;;;;4985867;28;20455;-52
2023/02/24 14:04:14;;;;;;;46.50;17.73;;;;;;;;;;4983597;28;20030;-58
2023/02/24 14:06:44;;;;;;;45.33;18.67;;;;;;;;;;4984931;28;20054;-58
2023/02/24 14:09:13;;;;;;;45.53;17.98;;;;;;;;;;4985798;28;20077;-51
2023/02/24 14:11:38;;;;;;;49.22;18.50;;;;;;;;;;4998995;28;20487;-54
2023/02/24 14:14:04;;;;;;;50.03;18.08;;;;;;;;;;4985779;28;20050;-57
2023/02/24 14:16:31;;;;;;;48.58;20.48;;;;;;;;;;4983715;28;20141;-55
2023/02/24 14:19:03;;;;;;;48.88;18.38;;;;;;;;;;4984585;28;20607;-55
2023/02/24 14:21:30;;;;;;;42.83;18.65;;;;;;;;;;4984263;28;20044;-56
2023/02/24 14:23:57;;;;;;;42.55;17.85;;;;;;;;;;4980730;28;20038;-52
2023/02/24 14:26:22;;;;;;;49.40;18.80;;;;;;;;;;5001997;28;20668;-57
2023/02/24 14:28:56;;;;;;;46.30;18.30;;;;;;;;;;4988832;28;20034;-50
2023/02/24 14:31:22;;;;;;;40.10;18.13;;;;;;;;;;4987321;28;20622;-55
2023/02/24 14:33:53;;;;;;;48.28;17.95;;;;;;;;;;4986284;28;20391;-57
2023/02/24 14:36:21;;;;;;;39.63;17.58;;;;;;;;;;4987497;28;20558;-56
2023/02/24 14:38:58;;;;;;;44.08;18.08;;;;;;;;;;4987998;28;20034;-58
2023/02/24 14:41:24;;;;;;;37.60;16.50;;;;;;;;;;4986184;28;20104;-53
2023/02/24 14:43:50;;;;;;;35.67;16.67;;;;;;;;;;4991050;28;20058;-51
2023/02/24 14:46:16;;;;;;;46.58;18.17;;;;;;;;;;4988114;28;20380;-52
2023/02/24 14:48:42;;;;;;;39.85;16.98;;;;;;;;;;4988783;28;20057;-50
2023/02/24 14:51:13;;;;;;;43.08;17.23;;;;;;;;;;4986995;28;20490;-54
2023/02/24 14:53:44;;;;;;;46.33;18.15;;;;;;;;;;4988297;28;20042;-51
2023/02/24 14:56:10;;;;;;;41.78;18.25;;;;;;;;;;4990334;28;20430;-50
2023/02/24 14:58:41;;;;;;;39.40;17.55;;;;;;;;;;4990820;28;20810;-53
2023/02/24 15:01:19;;;;;;;42.30;18.52;;;;;;;;;;4985612;28;20025;-51
2023/02/24 15:03:47;;;;;;;46.45;17.67;;;;;;;;;;4984502;28;20908;-56
2023/02/24 15:06:12;;;;;;;;;;;;;;;;;;4986930;28;20057;-54
2023/02/24 15:08:40;;;;;;;35.85;17.08;;;;;;;;;;4996204;28;20380;-54
2023/02/24 15:11:10;;;;;;;46.38;17.83;;;;;;;;;;4990337;28;20117;-50
2023/02/24 15:13:38;;;;;;;41.33;17.30;;;;;;;;;;4990036;28;20129;-50
2023/02/24 15:16:08;;;;;;;41.88;17.80;;;;;;;;;;4987738;28;20054;-55
2023/02/24 15:18:34;;;;;;;44.75;18.35;;;;;;;;;;4986774;28;20474;-54